sensor_id;sensor_type;location;lat;lon;timestamp;P1;durP1;ratioP1;P2;durP2;ratioP2
68353;SDS011;55274;43.060;25.618;2023-05-23T00:01:41;26.70;;;6.20;;
68353;SDS011;55274;43.060;25.618;2023-05-23T00:04:09;17.17;;;6.75;;
68353;SDS011;55274;43.060;25.618;2023-05-23T00:06:41;212.93;;;15.75;;
68353;SDS011;55274;43.060;25.618;2023-05-23T00:09:12;166.82;;;15.27;;
68353;SDS011;55274;43.060;25.618;2023-05-23T00:11:38;230.35;;;16.05;;
68353;SDS011;55274;43.060;25.618;2023-05-23T00:14:09;193.02;;;15.20;;
68353;SDS011;55274;43.060;25.618;2023-05-23T00:16:39;95.90;;;12.30;;
68353;SDS011;55274;43.060;25.618;2023-05-23T00:19:06;109.15;;;12.18;;
68353;SDS011;55274;43.060;25.618;2023-05-23T00:21:32;36.83;;;8.52;;
68353;SDS011;55274;43.060;25.618;2023-05-23T00:23:58;127.90;;;13.70;;
68353;SDS011;55274;43.060;25.618;2023-05-23T00:26:23;68.38;;;9.98;;
68353;SDS011;55274;43.060;25.618;2023-05-23T00:28:49;112.43;;;11.27;;
68353;SDS011;55274;43.060;25.618;2023-05-23T00:31:15;121.45;;;11.45;;
68353;SDS011;55274;43.060;25.618;2023-05-23T00:33:41;78.10;;;10.75;;
68353;SDS011;55274;43.060;25.618;2023-05-23T00:36:07;92.20;;;12.15;;
68353;SDS011;55274;43.060;25.618;2023-05-23T00:38:33;99.30;;;10.63;;
68353;SDS011;55274;43.060;25.618;2023-05-23T00:40:59;113.72;;;13.50;;
68353;SDS011;55274;43.060;25.618;2023-05-23T00:43:26;62.42;;;9.90;;
68353;SDS011;55274;43.060;25.618;2023-05-23T00:45:51;106.72;;;10.70;;
68353;SDS011;55274;43.060;25.618;2023-05-23T00:48:17;65.25;;;8.02;;
68353;SDS011;55274;43.060;25.618;2023-05-23T00:50:43;85.05;;;9.30;;
68353;SDS011;55274;43.060;25.618;2023-05-23T00:53:10;39.42;;;7.35;;
68353;SDS011;55274;43.060;25.618;2023-05-23T00:55:37;47.72;;;7.65;;
68353;SDS011;55274;43.060;25.618;2023-05-23T00:58:03;72.30;;;9.70;;
68353;SDS011;55274;43.060;25.618;2023-05-23T01:00:29;92.65;;;11.43;;
68353;SDS011;55274;43.060;25.618;2023-05-23T01:02:58;38.03;;;8.52;;
68353;SDS011;55274;43.060;25.618;2023-05-23T01:05:25;34.05;;;7.43;;
68353;SDS011;55274;43.060;25.618;2023-05-23T01:07:51;74.55;;;9.27;;
68353;SDS011;55274;43.060;25.618;2023-05-23T01:10:18;105.72;;;12.07;;
68353;SDS011;55274;43.060;25.618;2023-05-23T01:18:38;50.25;;;9.13;;
68353;SDS011;55274;43.060;25.618;2023-05-23T01:21:11;127.95;;;12.60;;
68353;SDS011;55274;43.060;25.618;2023-05-23T01:23:48;88.20;;;10.93;;
68353;SDS011;55274;43.060;25.618;2023-05-23T01:29:10;74.22;;;12.32;;
68353;SDS011;55274;43.060;25.618;2023-05-23T01:31:40;105.45;;;12.60;;
68353;SDS011;55274;43.060;25.618;2023-05-23T01:34:09;45.40;;;10.63;;
68353;SDS011;55274;43.060;25.618;2023-05-23T01:36:43;92.13;;;10.60;;
68353;SDS011;55274;43.060;25.618;2023-05-23T01:39:10;128.10;;;13.82;;
68353;SDS011;55274;43.060;25.618;2023-05-23T01:41:36;108.18;;;14.38;;
68353;SDS011;55274;43.060;25.618;2023-05-23T01:44:02;111.88;;;13.48;;
68353;SDS011;55274;43.060;25.618;2023-05-23T01:46:28;23.63;;;9.57;;
68353;SDS011;55274;43.060;25.618;2023-05-23T01:48:56;60.05;;;10.00;;
68353;SDS011;55274;43.060;25.618;2023-05-23T01:51:23;74.95;;;12.90;;
68353;SDS011;55274;43.060;25.618;2023-05-23T01:53:49;69.55;;;10.10;;
68353;SDS011;55274;43.060;25.618;2023-05-23T01:56:16;51.42;;;10.25;;
68353;SDS011;55274;43.060;25.618;2023-05-23T01:58:42;62.17;;;8.70;;
68353;SDS011;55274;43.060;25.618;2023-05-23T02:01:08;60.40;;;8.95;;
68353;SDS011;55274;43.060;25.618;2023-05-23T02:03:34;66.68;;;10.30;;
68353;SDS011;55274;43.060;25.618;2023-05-23T02:06:00;44.55;;;9.05;;
68353;SDS011;55274;43.060;25.618;2023-05-23T02:08:26;62.03;;;9.00;;
68353;SDS011;55274;43.060;25.618;2023-05-23T02:10:51;53.45;;;10.75;;
68353;SDS011;55274;43.060;25.618;2023-05-23T02:13:17;62.17;;;10.45;;
68353;SDS011;55274;43.060;25.618;2023-05-23T02:15:43;64.32;;;10.63;;
68353;SDS011;55274;43.060;25.618;2023-05-23T02:18:08;144.90;;;12.45;;
68353;SDS011;55274;43.060;25.618;2023-05-23T02:20:34;57.45;;;10.02;;
68353;SDS011;55274;43.060;25.618;2023-05-23T02:23:00;28.70;;;9.05;;
68353;SDS011;55274;43.060;25.618;2023-05-23T02:25:26;71.75;;;9.60;;
68353;SDS011;55274;43.060;25.618;2023-05-23T02:27:51;29.95;;;9.23;;
68353;SDS011;55274;43.060;25.618;2023-05-23T02:30:17;51.28;;;8.35;;
68353;SDS011;55274;43.060;25.618;2023-05-23T02:32:43;37.00;;;7.07;;
68353;SDS011;55274;43.060;25.618;2023-05-23T02:35:09;27.42;;;8.38;;
68353;SDS011;55274;43.060;25.618;2023-05-23T02:37:35;42.67;;;8.82;;
68353;SDS011;55274;43.060;25.618;2023-05-23T02:40:01;26.20;;;8.40;;
68353;SDS011;55274;43.060;25.618;2023-05-23T02:42:27;45.25;;;8.40;;
68353;SDS011;55274;43.060;25.618;2023-05-23T02:44:53;38.50;;;9.05;;
68353;SDS011;55274;43.060;25.618;2023-05-23T02:47:18;37.10;;;8.30;;
68353;SDS011;55274;43.060;25.618;2023-05-23T02:49:44;52.83;;;9.35;;
68353;SDS011;55274;43.060;25.618;2023-05-23T02:52:10;26.05;;;8.88;;
68353;SDS011;55274;43.060;25.618;2023-05-23T02:54:36;31.42;;;8.90;;
68353;SDS011;55274;43.060;25.618;2023-05-23T02:57:01;43.70;;;10.52;;
68353;SDS011;55274;43.060;25.618;2023-05-23T02:59:28;47.30;;;10.07;;
68353;SDS011;55274;43.060;25.618;2023-05-23T03:01:54;47.67;;;10.40;;
68353;SDS011;55274;43.060;25.618;2023-05-23T03:04:19;28.42;;;8.45;;
68353;SDS011;55274;43.060;25.618;2023-05-23T03:06:45;29.42;;;8.52;;
68353;SDS011;55274;43.060;25.618;2023-05-23T03:09:13;42.28;;;8.07;;
68353;SDS011;55274;43.060;25.618;2023-05-23T03:11:39;35.92;;;8.70;;
68353;SDS011;55274;43.060;25.618;2023-05-23T03:14:05;52.35;;;8.07;;
68353;SDS011;55274;43.060;25.618;2023-05-23T03:16:31;75.55;;;8.82;;
68353;SDS011;55274;43.060;25.618;2023-05-23T03:18:57;36.05;;;8.30;;
68353;SDS011;55274;43.060;25.618;2023-05-23T03:21:22;34.40;;;8.05;;
68353;SDS011;55274;43.060;25.618;2023-05-23T03:23:48;28.85;;;7.90;;
68353;SDS011;55274;43.060;25.618;2023-05-23T03:26:14;25.42;;;7.95;;
68353;SDS011;55274;43.060;25.618;2023-05-23T03:28:40;26.55;;;7.85;;
68353;SDS011;55274;43.060;25.618;2023-05-23T03:31:06;28.98;;;8.13;;
68353;SDS011;55274;43.060;25.618;2023-05-23T03:33:32;27.70;;;6.88;;
68353;SDS011;55274;43.060;25.618;2023-05-23T03:35:58;22.13;;;6.90;;
68353;SDS011;55274;43.060;25.618;2023-05-23T03:38:23;18.58;;;7.57;;
68353;SDS011;55274;43.060;25.618;2023-05-23T03:40:49;22.63;;;8.00;;
68353;SDS011;55274;43.060;25.618;2023-05-23T03:43:15;25.20;;;8.68;;
68353;SDS011;55274;43.060;25.618;2023-05-23T03:45:40;25.85;;;8.65;;
68353;SDS011;55274;43.060;25.618;2023-05-23T03:48:06;41.75;;;11.38;;
68353;SDS011;55274;43.060;25.618;2023-05-23T03:50:32;33.55;;;12.07;;
68353;SDS011;55274;43.060;25.618;2023-05-23T03:52:58;39.97;;;13.52;;
68353;SDS011;55274;43.060;25.618;2023-05-23T03:55:23;33.90;;;9.73;;
68353;SDS011;55274;43.060;25.618;2023-05-23T03:57:52;28.30;;;10.55;;
68353;SDS011;55274;43.060;25.618;2023-05-23T04:00:18;39.40;;;12.73;;
68353;SDS011;55274;43.060;25.618;2023-05-23T04:02:44;52.95;;;13.10;;
68353;SDS011;55274;43.060;25.618;2023-05-23T04:05:11;62.13;;;17.10;;
68353;SDS011;55274;43.060;25.618;2023-05-23T04:07:37;72.93;;;15.57;;
68353;SDS011;55274;43.060;25.618;2023-05-23T04:10:03;56.35;;;14.48;;
68353;SDS011;55274;43.060;25.618;2023-05-23T04:12:30;78.35;;;14.45;;
68353;SDS011;55274;43.060;25.618;2023-05-23T04:14:56;67.45;;;15.93;;
68353;SDS011;55274;43.060;25.618;2023-05-23T04:17:22;77.15;;;17.65;;
68353;SDS011;55274;43.060;25.618;2023-05-23T04:19:48;88.50;;;17.15;;
68353;SDS011;55274;43.060;25.618;2023-05-23T04:22:15;99.45;;;16.10;;
68353;SDS011;55274;43.060;25.618;2023-05-23T04:24:41;58.47;;;15.77;;
68353;SDS011;55274;43.060;25.618;2023-05-23T04:27:06;64.88;;;16.50;;
68353;SDS011;55274;43.060;25.618;2023-05-23T04:29:33;58.92;;;16.48;;
68353;SDS011;55274;43.060;25.618;2023-05-23T04:32:00;54.83;;;15.75;;
68353;SDS011;55274;43.060;25.618;2023-05-23T04:34:26;45.60;;;14.25;;
68353;SDS011;55274;43.060;25.618;2023-05-23T04:36:53;101.38;;;15.65;;
68353;SDS011;55274;43.060;25.618;2023-05-23T04:39:19;68.95;;;16.25;;
68353;SDS011;55274;43.060;25.618;2023-05-23T04:41:44;63.33;;;15.52;;
68353;SDS011;55274;43.060;25.618;2023-05-23T04:44:10;43.45;;;15.25;;
68353;SDS011;55274;43.060;25.618;2023-05-23T04:46:38;71.10;;;16.13;;
68353;SDS011;55274;43.060;25.618;2023-05-23T04:51:34;62.05;;;17.92;;
68353;SDS011;55274;43.060;25.618;2023-05-23T04:54:01;48.67;;;17.42;;
68353;SDS011;55274;43.060;25.618;2023-05-23T04:56:26;65.72;;;18.25;;
68353;SDS011;55274;43.060;25.618;2023-05-23T04:58:53;61.45;;;17.05;;
68353;SDS011;55274;43.060;25.618;2023-05-23T05:01:19;53.45;;;16.45;;
68353;SDS011;55274;43.060;25.618;2023-05-23T05:03:45;44.03;;;16.33;;
68353;SDS011;55274;43.060;25.618;2023-05-23T05:06:12;47.30;;;17.67;;
68353;SDS011;55274;43.060;25.618;2023-05-23T05:08:38;49.58;;;17.23;;
68353;SDS011;55274;43.060;25.618;2023-05-23T05:11:04;49.67;;;15.60;;
68353;SDS011;55274;43.060;25.618;2023-05-23T05:13:30;45.35;;;15.98;;
68353;SDS011;55274;43.060;25.618;2023-05-23T05:15:56;47.40;;;17.23;;
68353;SDS011;55274;43.060;25.618;2023-05-23T05:18:23;42.75;;;16.67;;
68353;SDS011;55274;43.060;25.618;2023-05-23T05:20:50;38.22;;;16.42;;
68353;SDS011;55274;43.060;25.618;2023-05-23T05:23:16;38.80;;;15.27;;
68353;SDS011;55274;43.060;25.618;2023-05-23T05:25:41;43.13;;;15.40;;
68353;SDS011;55274;43.060;25.618;2023-05-23T05:28:07;40.97;;;15.02;;
68353;SDS011;55274;43.060;25.618;2023-05-23T05:30:33;31.27;;;14.00;;
68353;SDS011;55274;43.060;25.618;2023-05-23T05:32:59;25.02;;;11.63;;
68353;SDS011;55274;43.060;25.618;2023-05-23T05:35:32;17.67;;;8.25;;
68353;SDS011;55274;43.060;25.618;2023-05-23T05:37:59;19.52;;;8.05;;
68353;SDS011;55274;43.060;25.618;2023-05-23T05:40:26;13.27;;;6.53;;
68353;SDS011;55274;43.060;25.618;2023-05-23T05:42:52;27.38;;;14.23;;
68353;SDS011;55274;43.060;25.618;2023-05-23T05:45:18;24.95;;;12.27;;
68353;SDS011;55274;43.060;25.618;2023-05-23T05:47:44;22.25;;;10.35;;
68353;SDS011;55274;43.060;25.618;2023-05-23T05:50:11;24.38;;;10.10;;
68353;SDS011;55274;43.060;25.618;2023-05-23T05:52:36;17.85;;;9.63;;
68353;SDS011;55274;43.060;25.618;2023-05-23T05:55:07;17.38;;;9.50;;
68353;SDS011;55274;43.060;25.618;2023-05-23T05:57:35;20.40;;;9.65;;
68353;SDS011;55274;43.060;25.618;2023-05-23T06:00:09;24.92;;;10.32;;
68353;SDS011;55274;43.060;25.618;2023-05-23T06:02:38;19.10;;;8.63;;
68353;SDS011;55274;43.060;25.618;2023-05-23T06:05:05;18.67;;;9.10;;
68353;SDS011;55274;43.060;25.618;2023-05-23T06:07:35;23.88;;;8.88;;
68353;SDS011;55274;43.060;25.618;2023-05-23T06:10:01;25.50;;;9.93;;
68353;SDS011;55274;43.060;25.618;2023-05-23T06:12:27;24.48;;;10.35;;
68353;SDS011;55274;43.060;25.618;2023-05-23T06:14:53;22.10;;;10.23;;
68353;SDS011;55274;43.060;25.618;2023-05-23T06:17:19;23.63;;;10.70;;
68353;SDS011;55274;43.060;25.618;2023-05-23T06:19:45;24.05;;;6.38;;
68353;SDS011;55274;43.060;25.618;2023-05-23T06:22:10;17.27;;;8.15;;
68353;SDS011;55274;43.060;25.618;2023-05-23T06:24:36;15.95;;;5.35;;
68353;SDS011;55274;43.060;25.618;2023-05-23T06:27:02;33.80;;;7.28;;
68353;SDS011;55274;43.060;25.618;2023-05-23T06:29:28;14.77;;;7.88;;
68353;SDS011;55274;43.060;25.618;2023-05-23T06:31:55;8.68;;;4.30;;
68353;SDS011;55274;43.060;25.618;2023-05-23T06:34:21;8.93;;;4.47;;
68353;SDS011;55274;43.060;25.618;2023-05-23T06:36:47;27.90;;;6.55;;
68353;SDS011;55274;43.060;25.618;2023-05-23T06:39:13;15.63;;;5.00;;
68353;SDS011;55274;43.060;25.618;2023-05-23T06:41:39;10.77;;;7.00;;
68353;SDS011;55274;43.060;25.618;2023-05-23T06:44:05;14.50;;;8.02;;
68353;SDS011;55274;43.060;25.618;2023-05-23T06:46:31;13.80;;;7.78;;
68353;SDS011;55274;43.060;25.618;2023-05-23T06:48:56;8.50;;;5.70;;
68353;SDS011;55274;43.060;25.618;2023-05-23T06:51:22;7.47;;;3.78;;
68353;SDS011;55274;43.060;25.618;2023-05-23T06:53:48;8.52;;;4.03;;
68353;SDS011;55274;43.060;25.618;2023-05-23T06:56:14;7.97;;;3.90;;
68353;SDS011;55274;43.060;25.618;2023-05-23T06:58:40;5.30;;;4.05;;
68353;SDS011;55274;43.060;25.618;2023-05-23T07:01:05;8.38;;;3.88;;
68353;SDS011;55274;43.060;25.618;2023-05-23T07:03:31;6.10;;;3.50;;
68353;SDS011;55274;43.060;25.618;2023-05-23T07:05:57;7.03;;;3.40;;
68353;SDS011;55274;43.060;25.618;2023-05-23T07:08:23;7.85;;;4.00;;
68353;SDS011;55274;43.060;25.618;2023-05-23T07:10:49;8.82;;;4.15;;
68353;SDS011;55274;43.060;25.618;2023-05-23T07:13:15;7.85;;;5.22;;
68353;SDS011;55274;43.060;25.618;2023-05-23T07:15:40;10.23;;;3.80;;
68353;SDS011;55274;43.060;25.618;2023-05-23T07:18:06;52.72;;;8.38;;
68353;SDS011;55274;43.060;25.618;2023-05-23T07:20:32;12.98;;;5.90;;
68353;SDS011;55274;43.060;25.618;2023-05-23T07:22:58;8.82;;;4.38;;
68353;SDS011;55274;43.060;25.618;2023-05-23T07:25:24;8.25;;;4.03;;
68353;SDS011;55274;43.060;25.618;2023-05-23T07:27:51;24.42;;;7.28;;
68353;SDS011;55274;43.060;25.618;2023-05-23T07:30:18;14.98;;;4.25;;
68353;SDS011;55274;43.060;25.618;2023-05-23T07:32:46;5.68;;;3.28;;
68353;SDS011;55274;43.060;25.618;2023-05-23T07:35:13;13.82;;;6.13;;
68353;SDS011;55274;43.060;25.618;2023-05-23T07:37:39;9.10;;;4.47;;
68353;SDS011;55274;43.060;25.618;2023-05-23T07:40:05;6.82;;;4.20;;
68353;SDS011;55274;43.060;25.618;2023-05-23T07:42:33;6.13;;;3.72;;
68353;SDS011;55274;43.060;25.618;2023-05-23T07:44:59;10.45;;;5.03;;
68353;SDS011;55274;43.060;25.618;2023-05-23T07:47:25;8.10;;;3.53;;
68353;SDS011;55274;43.060;25.618;2023-05-23T07:49:51;13.93;;;5.68;;
68353;SDS011;55274;43.060;25.618;2023-05-23T07:52:18;24.02;;;5.90;;
68353;SDS011;55274;43.060;25.618;2023-05-23T07:54:43;10.38;;;4.15;;
68353;SDS011;55274;43.060;25.618;2023-05-23T07:57:09;7.75;;;4.00;;
68353;SDS011;55274;43.060;25.618;2023-05-23T07:59:35;14.85;;;3.92;;
68353;SDS011;55274;43.060;25.618;2023-05-23T08:02:01;19.55;;;4.50;;
68353;SDS011;55274;43.060;25.618;2023-05-23T08:04:27;12.88;;;3.88;;
68353;SDS011;55274;43.060;25.618;2023-05-23T08:06:53;30.67;;;4.75;;
68353;SDS011;55274;43.060;25.618;2023-05-23T08:09:20;32.53;;;6.28;;
68353;SDS011;55274;43.060;25.618;2023-05-23T08:11:47;5.22;;;3.17;;
68353;SDS011;55274;43.060;25.618;2023-05-23T08:14:13;7.90;;;3.83;;
68353;SDS011;55274;43.060;25.618;2023-05-23T08:16:38;5.60;;;3.28;;
68353;SDS011;55274;43.060;25.618;2023-05-23T08:19:04;9.02;;;3.88;;
68353;SDS011;55274;43.060;25.618;2023-05-23T08:21:30;12.32;;;4.38;;
68353;SDS011;55274;43.060;25.618;2023-05-23T08:23:56;5.13;;;3.10;;
68353;SDS011;55274;43.060;25.618;2023-05-23T08:26:22;12.15;;;3.70;;
68353;SDS011;55274;43.060;25.618;2023-05-23T08:28:48;14.35;;;3.75;;
68353;SDS011;55274;43.060;25.618;2023-05-23T08:31:14;9.70;;;3.92;;
68353;SDS011;55274;43.060;25.618;2023-05-23T08:33:40;20.08;;;4.03;;
68353;SDS011;55274;43.060;25.618;2023-05-23T08:36:06;6.97;;;3.33;;
68353;SDS011;55274;43.060;25.618;2023-05-23T08:51:06;13.60;;;3.60;;
68353;SDS011;55274;43.060;25.618;2023-05-23T08:53:38;7.38;;;2.88;;
68353;SDS011;55274;43.060;25.618;2023-05-23T08:56:07;37.05;;;5.10;;
68353;SDS011;55274;43.060;25.618;2023-05-23T08:58:33;9.68;;;2.88;;
68353;SDS011;55274;43.060;25.618;2023-05-23T09:00:59;8.27;;;2.30;;
68353;SDS011;55274;43.060;25.618;2023-05-23T09:03:26;24.25;;;3.63;;
68353;SDS011;55274;43.060;25.618;2023-05-23T09:05:55;5.45;;;2.05;;
68353;SDS011;55274;43.060;25.618;2023-05-23T09:08:21;4.72;;;2.35;;
68353;SDS011;55274;43.060;25.618;2023-05-23T09:10:51;3.92;;;2.33;;
68353;SDS011;55274;43.060;25.618;2023-05-23T09:13:17;7.57;;;2.55;;
68353;SDS011;55274;43.060;25.618;2023-05-23T09:18:39;5.47;;;2.95;;
68353;SDS011;55274;43.060;25.618;2023-05-23T09:21:07;6.05;;;3.20;;
68353;SDS011;55274;43.060;25.618;2023-05-23T09:23:35;25.05;;;3.15;;
68353;SDS011;55274;43.060;25.618;2023-05-23T09:26:03;6.18;;;2.53;;
68353;SDS011;55274;43.060;25.618;2023-05-23T09:28:37;4.05;;;2.70;;
68353;SDS011;55274;43.060;25.618;2023-05-23T09:31:05;4.13;;;2.45;;
68353;SDS011;55274;43.060;25.618;2023-05-23T09:33:45;7.57;;;3.03;;
68353;SDS011;55274;43.060;25.618;2023-05-23T09:36:12;28.70;;;4.68;;
68353;SDS011;55274;43.060;25.618;2023-05-23T09:38:38;33.63;;;4.75;;
68353;SDS011;55274;43.060;25.618;2023-05-23T09:41:06;5.22;;;3.10;;
68353;SDS011;55274;43.060;25.618;2023-05-23T09:43:32;8.13;;;3.10;;
68353;SDS011;55274;43.060;25.618;2023-05-23T09:46:10;10.77;;;4.00;;
68353;SDS011;55274;43.060;25.618;2023-05-23T09:48:36;12.13;;;3.20;;
68353;SDS011;55274;43.060;25.618;2023-05-23T09:51:12;6.35;;;2.70;;
68353;SDS011;55274;43.060;25.618;2023-05-23T09:53:37;6.95;;;2.70;;
68353;SDS011;55274;43.060;25.618;2023-05-23T09:56:03;13.00;;;3.47;;
68353;SDS011;55274;43.060;25.618;2023-05-23T09:58:32;7.97;;;2.92;;
68353;SDS011;55274;43.060;25.618;2023-05-23T10:00:59;8.57;;;3.17;;
68353;SDS011;55274;43.060;25.618;2023-05-23T10:09:16;14.40;;;3.42;;
68353;SDS011;55274;43.060;25.618;2023-05-23T10:14:23;11.35;;;3.40;;
68353;SDS011;55274;43.060;25.618;2023-05-23T10:17:02;4.65;;;2.60;;
68353;SDS011;55274;43.060;25.618;2023-05-23T10:19:36;11.45;;;2.90;;
68353;SDS011;55274;43.060;25.618;2023-05-23T10:22:22;12.88;;;3.10;;
68353;SDS011;55274;43.060;25.618;2023-05-23T10:24:49;5.72;;;3.15;;
68353;SDS011;55274;43.060;25.618;2023-05-23T10:27:15;7.20;;;2.53;;
68353;SDS011;55274;43.060;25.618;2023-05-23T10:29:41;18.42;;;3.70;;
68353;SDS011;55274;43.060;25.618;2023-05-23T10:32:08;8.93;;;3.45;;
68353;SDS011;55274;43.060;25.618;2023-05-23T10:34:47;6.88;;;3.05;;
68353;SDS011;55274;43.060;25.618;2023-05-23T10:37:34;4.65;;;2.72;;
68353;SDS011;55274;43.060;25.618;2023-05-23T10:43:15;34.65;;;6.85;;
68353;SDS011;55274;43.060;25.618;2023-05-23T10:46:13;6.53;;;2.95;;
68353;SDS011;55274;43.060;25.618;2023-05-23T10:48:42;9.45;;;3.65;;
68353;SDS011;55274;43.060;25.618;2023-05-23T10:53:36;8.10;;;3.20;;
68353;SDS011;55274;43.060;25.618;2023-05-23T10:56:04;7.70;;;3.13;;
68353;SDS011;55274;43.060;25.618;2023-05-23T10:58:34;10.77;;;4.20;;
68353;SDS011;55274;43.060;25.618;2023-05-23T11:01:03;10.18;;;3.33;;
68353;SDS011;55274;43.060;25.618;2023-05-23T11:03:34;9.05;;;3.30;;
68353;SDS011;55274;43.060;25.618;2023-05-23T11:06:10;6.78;;;3.22;;
68353;SDS011;55274;43.060;25.618;2023-05-23T11:09:18;9.52;;;3.22;;
68353;SDS011;55274;43.060;25.618;2023-05-23T11:19:54;9.00;;;3.28;;
68353;SDS011;55274;43.060;25.618;2023-05-23T11:22:26;4.50;;;3.30;;
68353;SDS011;55274;43.060;25.618;2023-05-23T11:24:55;13.48;;;3.60;;
68353;SDS011;55274;43.060;25.618;2023-05-23T11:27:30;14.40;;;4.47;;
68353;SDS011;55274;43.060;25.618;2023-05-23T11:32:28;11.85;;;3.72;;
68353;SDS011;55274;43.060;25.618;2023-05-23T11:34:57;8.82;;;3.50;;
68353;SDS011;55274;43.060;25.618;2023-05-23T11:37:28;12.13;;;3.30;;
68353;SDS011;55274;43.060;25.618;2023-05-23T11:39:55;14.77;;;3.78;;
68353;SDS011;55274;43.060;25.618;2023-05-23T11:42:21;9.43;;;3.15;;
68353;SDS011;55274;43.060;25.618;2023-05-23T11:44:48;5.63;;;2.92;;
68353;SDS011;55274;43.060;25.618;2023-05-23T11:47:15;7.05;;;3.35;;
68353;SDS011;55274;43.060;25.618;2023-05-23T11:49:43;18.38;;;4.05;;
68353;SDS011;55274;43.060;25.618;2023-05-23T11:52:11;23.38;;;5.15;;
68353;SDS011;55274;43.060;25.618;2023-05-23T11:54:38;14.60;;;4.53;;
68353;SDS011;55274;43.060;25.618;2023-05-23T11:57:08;11.25;;;4.00;;
68353;SDS011;55274;43.060;25.618;2023-05-23T11:59:34;10.20;;;3.42;;
68353;SDS011;55274;43.060;25.618;2023-05-23T12:02:01;12.18;;;3.83;;
68353;SDS011;55274;43.060;25.618;2023-05-23T12:04:27;7.78;;;3.58;;
68353;SDS011;55274;43.060;25.618;2023-05-23T12:06:53;11.07;;;4.53;;
68353;SDS011;55274;43.060;25.618;2023-05-23T12:09:19;13.35;;;5.80;;
68353;SDS011;55274;43.060;25.618;2023-05-23T12:11:47;11.25;;;4.68;;
68353;SDS011;55274;43.060;25.618;2023-05-23T12:14:14;5.97;;;3.35;;
68353;SDS011;55274;43.060;25.618;2023-05-23T12:16:44;29.70;;;6.18;;
68353;SDS011;55274;43.060;25.618;2023-05-23T12:19:11;8.45;;;4.03;;
68353;SDS011;55274;43.060;25.618;2023-05-23T12:24:11;72.90;;;8.27;;
68353;SDS011;55274;43.060;25.618;2023-05-23T12:29:18;8.25;;;2.97;;
68353;SDS011;55274;43.060;25.618;2023-05-23T12:31:49;5.65;;;3.10;;
68353;SDS011;55274;43.060;25.618;2023-05-23T12:34:16;6.30;;;2.97;;
68353;SDS011;55274;43.060;25.618;2023-05-23T12:36:41;5.97;;;2.60;;
68353;SDS011;55274;43.060;25.618;2023-05-23T12:39:08;3.05;;;2.28;;
68353;SDS011;55274;43.060;25.618;2023-05-23T12:41:34;5.70;;;2.40;;
68353;SDS011;55274;43.060;25.618;2023-05-23T12:44:01;3.70;;;2.22;;
68353;SDS011;55274;43.060;25.618;2023-05-23T12:46:27;9.50;;;2.88;;
68353;SDS011;55274;43.060;25.618;2023-05-23T12:48:53;6.63;;;3.20;;
68353;SDS011;55274;43.060;25.618;2023-05-23T12:51:19;6.50;;;3.53;;
68353;SDS011;55274;43.060;25.618;2023-05-23T12:53:45;6.45;;;2.83;;
68353;SDS011;55274;43.060;25.618;2023-05-23T12:56:11;6.47;;;2.50;;
68353;SDS011;55274;43.060;25.618;2023-05-23T12:58:37;7.70;;;2.83;;
68353;SDS011;55274;43.060;25.618;2023-05-23T13:01:03;6.45;;;2.80;;
68353;SDS011;55274;43.060;25.618;2023-05-23T13:03:29;4.40;;;2.22;;
68353;SDS011;55274;43.060;25.618;2023-05-23T13:05:55;5.18;;;2.40;;
68353;SDS011;55274;43.060;25.618;2023-05-23T13:08:22;5.47;;;2.95;;
68353;SDS011;55274;43.060;25.618;2023-05-23T13:10:48;5.28;;;2.50;;
68353;SDS011;55274;43.060;25.618;2023-05-23T13:13:14;3.60;;;2.15;;
68353;SDS011;55274;43.060;25.618;2023-05-23T13:15:40;5.55;;;2.63;;
68353;SDS011;55274;43.060;25.618;2023-05-23T13:18:06;3.90;;;2.40;;
68353;SDS011;55274;43.060;25.618;2023-05-23T13:20:32;5.55;;;2.50;;
68353;SDS011;55274;43.060;25.618;2023-05-23T13:22:58;3.67;;;2.28;;
68353;SDS011;55274;43.060;25.618;2023-05-23T13:25:25;4.78;;;3.17;;
68353;SDS011;55274;43.060;25.618;2023-05-23T13:27:51;6.63;;;2.97;;
68353;SDS011;55274;43.060;25.618;2023-05-23T13:30:21;10.75;;;3.08;;
68353;SDS011;55274;43.060;25.618;2023-05-23T13:32:48;5.70;;;2.80;;
68353;SDS011;55274;43.060;25.618;2023-05-23T13:35:14;5.47;;;2.55;;
68353;SDS011;55274;43.060;25.618;2023-05-23T13:37:40;4.20;;;2.55;;
68353;SDS011;55274;43.060;25.618;2023-05-23T13:40:06;6.40;;;3.22;;
68353;SDS011;55274;43.060;25.618;2023-05-23T13:42:36;7.13;;;3.00;;
68353;SDS011;55274;43.060;25.618;2023-05-23T13:45:01;6.07;;;3.17;;
68353;SDS011;55274;43.060;25.618;2023-05-23T13:47:28;10.05;;;4.03;;
68353;SDS011;55274;43.060;25.618;2023-05-23T13:49:55;16.65;;;6.95;;
68353;SDS011;55274;43.060;25.618;2023-05-23T13:52:20;120.40;;;13.90;;
68353;SDS011;55274;43.060;25.618;2023-05-23T13:54:46;11.60;;;3.70;;
68353;SDS011;55274;43.060;25.618;2023-05-23T13:57:12;18.20;;;3.65;;
68353;SDS011;55274;43.060;25.618;2023-05-23T13:59:38;17.42;;;3.50;;
68353;SDS011;55274;43.060;25.618;2023-05-23T14:02:04;43.97;;;7.90;;
68353;SDS011;55274;43.060;25.618;2023-05-23T14:04:31;9.15;;;5.30;;
68353;SDS011;55274;43.060;25.618;2023-05-23T14:06:57;5.78;;;4.22;;
68353;SDS011;55274;43.060;25.618;2023-05-23T14:09:23;5.18;;;3.10;;
68353;SDS011;55274;43.060;25.618;2023-05-23T14:11:48;3.92;;;2.80;;
68353;SDS011;55274;43.060;25.618;2023-05-23T14:14:16;7.22;;;2.50;;
68353;SDS011;55274;43.060;25.618;2023-05-23T14:16:42;6.90;;;3.25;;
68353;SDS011;55274;43.060;25.618;2023-05-23T14:19:08;4.60;;;2.80;;
68353;SDS011;55274;43.060;25.618;2023-05-23T14:21:34;5.25;;;2.72;;
68353;SDS011;55274;43.060;25.618;2023-05-23T14:24:00;6.35;;;3.25;;
68353;SDS011;55274;43.060;25.618;2023-05-23T14:26:26;10.07;;;3.70;;
68353;SDS011;55274;43.060;25.618;2023-05-23T14:28:52;13.82;;;3.65;;
68353;SDS011;55274;43.060;25.618;2023-05-23T14:31:18;10.07;;;2.90;;
68353;SDS011;55274;43.060;25.618;2023-05-23T14:33:45;7.65;;;3.15;;
68353;SDS011;55274;43.060;25.618;2023-05-23T14:36:11;8.90;;;3.28;;
68353;SDS011;55274;43.060;25.618;2023-05-23T14:38:37;7.38;;;2.95;;
68353;SDS011;55274;43.060;25.618;2023-05-23T14:41:03;6.88;;;2.80;;
68353;SDS011;55274;43.060;25.618;2023-05-23T14:43:29;10.27;;;4.53;;
68353;SDS011;55274;43.060;25.618;2023-05-23T14:45:55;10.88;;;5.15;;
68353;SDS011;55274;43.060;25.618;2023-05-23T14:48:21;10.60;;;5.57;;
68353;SDS011;55274;43.060;25.618;2023-05-23T14:50:47;15.35;;;5.97;;
68353;SDS011;55274;43.060;25.618;2023-05-23T14:53:12;66.30;;;10.07;;
68353;SDS011;55274;43.060;25.618;2023-05-23T14:55:38;30.67;;;11.05;;
68353;SDS011;55274;43.060;25.618;2023-05-23T14:58:04;40.50;;;6.82;;
68353;SDS011;55274;43.060;25.618;2023-05-23T15:00:30;25.60;;;7.22;;
68353;SDS011;55274;43.060;25.618;2023-05-23T15:02:57;18.27;;;8.23;;
68353;SDS011;55274;43.060;25.618;2023-05-23T15:05:22;20.25;;;4.53;;
68353;SDS011;55274;43.060;25.618;2023-05-23T15:07:49;9.98;;;3.70;;
68353;SDS011;55274;43.060;25.618;2023-05-23T15:10:15;10.88;;;2.88;;
68353;SDS011;55274;43.060;25.618;2023-05-23T15:12:41;15.73;;;3.58;;
68353;SDS011;55274;43.060;25.618;2023-05-23T15:15:07;10.88;;;3.00;;
68353;SDS011;55274;43.060;25.618;2023-05-23T15:17:33;61.05;;;6.30;;